createdAt,value
2023-02-25T00:00:34.695Z,93.74
2023-02-25T00:03:02.033Z,94.56
2023-02-25T00:05:31.895Z,93.99
2023-02-25T00:07:59.114Z,96.10
2023-02-25T00:10:26.021Z,95.83
2023-02-25T00:12:52.870Z,97.10
2023-02-25T00:15:20.009Z,96.02
2023-02-25T00:17:50.055Z,96.15
2023-02-25T00:20:20.899Z,97.64
2023-02-25T00:22:47.717Z,97.64
2023-02-25T00:25:17.095Z,96.05
2023-02-25T00:27:44.416Z,97.24
2023-02-25T00:30:12.395Z,97.37
2023-02-25T00:32:39.873Z,98.21
2023-02-25T00:35:07.380Z,97.91
2023-02-25T00:37:34.247Z,95.56
2023-02-25T00:40:01.077Z,96.09
2023-02-25T00:42:27.969Z,96.13
2023-02-25T00:44:54.829Z,97.46
2023-02-25T00:47:21.675Z,97.85
2023-02-25T00:49:48.756Z,99.22
2023-02-25T00:52:16.582Z,98.82
2023-02-25T00:54:43.712Z,97.73
2023-02-25T00:57:10.662Z,97.47
2023-02-25T00:59:37.538Z,98.00
2023-02-25T01:02:04.878Z,98.35
2023-02-25T01:04:32.081Z,96.98
2023-02-25T01:06:59.231Z,97.10
2023-02-25T01:09:26.167Z,95.99
2023-02-25T01:11:53.369Z,97.38
2023-02-25T01:14:23.464Z,96.12
2023-02-25T01:16:51.350Z,96.76
2023-02-25T01:19:21.947Z,97.05
2023-02-25T01:21:51.881Z,97.62
2023-02-25T01:24:27.388Z,97.42
2023-02-25T01:26:55.520Z,98.08
2023-02-25T01:29:30.476Z,96.84
2023-02-25T01:31:59.883Z,96.28
2023-02-25T01:34:27.593Z,97.25
2023-02-25T01:36:54.849Z,97.50
2023-02-25T01:39:22.941Z,96.14
2023-02-25T01:41:53.620Z,96.79
2023-02-25T01:45:05.578Z,96.93
2023-02-25T01:47:36.600Z,96.13
2023-02-25T01:50:03.674Z,96.78
2023-02-25T01:52:30.680Z,95.66
2023-02-25T01:54:58.153Z,95.46
2023-02-25T01:57:25.203Z,95.55
2023-02-25T01:59:54.277Z,95.55
2023-02-25T02:02:23.234Z,95.45
2023-02-25T02:04:51.996Z,96.12
2023-02-25T02:07:20.107Z,96.14
2023-02-25T02:09:56.526Z,96.94
2023-02-25T02:12:32.647Z,97.57
2023-02-25T02:15:01.548Z,96.50
2023-02-25T02:17:39.469Z,96.28
2023-02-25T02:20:20.693Z,97.62
2023-02-25T02:23:26.173Z,96.65
2023-02-25T02:26:10.191Z,97.31
2023-02-25T02:28:55.356Z,98.77
2023-02-25T02:31:34.223Z,97.75
2023-02-25T02:34:09.811Z,98.06
2023-02-25T02:36:59.404Z,99.15
2023-02-25T02:39:50.100Z,98.96
2023-02-25T02:42:41.881Z,97.98
2023-02-25T02:45:13.803Z,97.66
2023-02-25T02:47:53.449Z,98.65
2023-02-25T02:50:41.173Z,98.98
2023-02-25T02:53:15.135Z,99.01
2023-02-25T02:55:46.079Z,99.27
2023-02-25T02:58:59.786Z,97.69
2023-02-25T03:01:54.281Z,98.60
2023-02-25T03:04:25.024Z,99.06
2023-02-25T03:06:56.498Z,98.64
2023-02-25T03:09:34.477Z,99.73
2023-02-25T03:12:01.458Z,98.93
2023-02-25T03:14:28.460Z,99.00
2023-02-25T03:16:59.588Z,98.42
2023-02-25T03:19:36.378Z,96.74
2023-02-25T03:22:11.636Z,98.68
2023-02-25T03:24:55.918Z,98.66
2023-02-25T03:27:27.457Z,99.45
2023-02-25T03:29:58.208Z,99.33
2023-02-25T03:32:25.195Z,98.63
2023-02-25T03:34:57.524Z,99.74
2023-02-25T03:37:29.668Z,99.56
2023-02-25T03:39:59.836Z,99.19
2023-02-25T03:42:33.543Z,100.00
2023-02-25T03:45:03.056Z,100.00
2023-02-25T03:47:33.188Z,99.55
2023-02-25T03:50:10.056Z,100.00
2023-02-25T03:52:37.383Z,100.00
2023-02-25T03:55:05.066Z,100.00
2023-02-25T03:57:38.438Z,99.43
2023-02-25T04:00:16.097Z,99.72
2023-02-25T04:02:43.953Z,99.95
2023-02-25T04:05:11.225Z,99.30
2023-02-25T04:07:38.849Z,100.00
2023-02-25T04:10:08.457Z,99.52
2023-02-25T04:12:35.343Z,100.00
2023-02-25T04:15:02.247Z,100.00
2023-02-25T04:17:29.200Z,100.00
2023-02-25T04:19:56.025Z,99.38
2023-02-25T04:22:22.953Z,100.00
2023-02-25T04:24:49.943Z,100.00
2023-02-25T04:27:16.881Z,99.93
2023-02-25T04:29:44.239Z,100.00
2023-02-25T04:32:12.327Z,100.00
2023-02-25T04:34:39.250Z,100.00
2023-02-25T04:37:06.116Z,99.66
2023-02-25T04:39:33.659Z,99.61
2023-02-25T04:42:00.570Z,100.00
2023-02-25T04:44:27.479Z,99.92
2023-02-25T04:46:54.381Z,99.82
2023-02-25T04:49:22.719Z,98.28
2023-02-25T04:51:51.578Z,99.79
2023-02-25T04:54:21.833Z,98.74
2023-02-25T04:56:49.197Z,100.00
2023-02-25T04:59:17.768Z,100.00
2023-02-25T05:01:44.670Z,100.00
2023-02-25T05:04:11.610Z,100.00
2023-02-25T05:06:39.391Z,99.00
2023-02-25T05:09:07.656Z,98.80
2023-02-25T05:11:35.652Z,100.00
2023-02-25T05:14:02.527Z,99.63
2023-02-25T05:16:29.557Z,98.59
2023-02-25T05:18:56.517Z,99.29
2023-02-25T05:21:25.051Z,98.99
2023-02-25T05:23:53.574Z,99.88
2023-02-25T05:26:23.650Z,100.00
2023-02-25T05:28:52.381Z,100.00
2023-02-25T05:31:19.473Z,100.00
2023-02-25T05:33:46.507Z,100.00
2023-02-25T05:36:15.465Z,100.00
2023-02-25T05:38:42.939Z,100.00
2023-02-25T05:41:10.788Z,100.00
2023-02-25T05:43:39.017Z,100.00
2023-02-25T05:46:09.313Z,100.00
2023-02-25T05:48:36.105Z,100.00
2023-02-25T05:51:08.290Z,100.00
2023-02-25T05:53:35.295Z,100.00
2023-02-25T05:56:12.232Z,100.00
2023-02-25T05:58:39.142Z,100.00
2023-02-25T06:01:11.690Z,99.91
2023-02-25T06:03:39.762Z,100.00
2023-02-25T06:06:07.624Z,99.98
2023-02-25T06:08:35.932Z,100.00
2023-02-25T06:11:06.500Z,100.00
2023-02-25T06:13:33.769Z,100.00
2023-02-25T06:16:04.290Z,100.00
2023-02-25T06:18:36.943Z,100.00
2023-02-25T06:21:08.790Z,100.00
2023-02-25T06:23:36.608Z,100.00
2023-02-25T06:26:05.274Z,99.98
2023-02-25T06:28:32.280Z,100.00
2023-02-25T06:30:59.186Z,100.00
2023-02-25T06:33:26.266Z,100.00
2023-02-25T06:35:54.418Z,100.00
2023-02-25T06:38:21.702Z,100.00
2023-02-25T06:40:49.796Z,100.00
2023-02-25T06:43:19.492Z,100.00
2023-02-25T06:45:46.390Z,100.00
2023-02-25T06:48:13.422Z,99.99
2023-02-25T06:50:40.665Z,99.94
2023-02-25T06:53:08.122Z,100.00
2023-02-25T06:55:35.297Z,99.50
2023-02-25T06:58:02.224Z,99.57
2023-02-25T07:00:29.065Z,99.46
2023-02-25T07:02:55.861Z,100.00
2023-02-25T07:05:22.861Z,100.00
2023-02-25T07:07:49.706Z,100.00
2023-02-25T07:10:16.740Z,100.00
2023-02-25T07:12:43.750Z,100.00
2023-02-25T07:15:10.829Z,100.00
2023-02-25T07:17:37.884Z,100.00
2023-02-25T07:20:05.106Z,100.00
2023-02-25T07:22:32.114Z,99.91
2023-02-25T07:24:58.998Z,99.52
2023-02-25T07:27:25.916Z,100.00
2023-02-25T07:29:52.871Z,100.00
2023-02-25T07:32:19.782Z,100.00
2023-02-25T07:34:46.805Z,100.00
2023-02-25T07:37:13.632Z,100.00
2023-02-25T07:39:40.596Z,100.00
2023-02-25T07:42:07.424Z,100.00
2023-02-25T07:44:35.367Z,100.00
2023-02-25T07:47:02.346Z,99.89
2023-02-25T07:49:29.274Z,100.00
2023-02-25T07:51:56.068Z,100.00
2023-02-25T07:54:23.533Z,100.00
2023-02-25T07:56:51.662Z,100.00
2023-02-25T07:59:19.308Z,100.00
2023-02-25T08:01:46.275Z,100.00
2023-02-25T08:04:13.229Z,100.00
2023-02-25T08:06:41.192Z,100.00
2023-02-25T08:09:11.240Z,100.00
2023-02-25T08:11:38.897Z,100.00
2023-02-25T08:14:06.283Z,100.00
2023-02-25T08:16:33.745Z,100.00
2023-02-25T08:19:00.606Z,100.00
2023-02-25T08:21:27.589Z,100.00
2023-02-25T08:23:54.971Z,100.00
2023-02-25T08:26:22.792Z,100.00
2023-02-25T08:28:52.357Z,100.00
2023-02-25T08:31:19.842Z,100.00
2023-02-25T08:33:53.020Z,100.00
2023-02-25T08:36:27.989Z,100.00
2023-02-25T08:38:57.584Z,100.00
2023-02-25T08:41:26.109Z,99.76
2023-02-25T08:43:55.053Z,100.00
2023-02-25T08:46:23.390Z,99.85
2023-02-25T08:48:51.712Z,99.75
2023-02-25T08:51:19.027Z,99.22
2023-02-25T08:53:45.972Z,98.41
2023-02-25T08:56:14.895Z,97.94
2023-02-25T08:58:41.802Z,97.94
2023-02-25T09:01:18.094Z,96.59
2023-02-25T09:03:53.545Z,95.89
2023-02-25T09:06:25.668Z,94.40
2023-02-25T09:08:53.230Z,93.92
2023-02-25T09:11:20.771Z,95.32
2023-02-25T09:13:48.228Z,93.90
2023-02-25T09:16:19.383Z,94.69
2023-02-25T09:18:47.208Z,94.60
2023-02-25T09:21:14.681Z,94.41
2023-02-25T09:23:41.748Z,94.08
2023-02-25T09:26:09.195Z,93.93
2023-02-25T09:28:36.767Z,93.30
2023-02-25T09:31:03.853Z,94.18
2023-02-25T09:33:36.061Z,93.87
2023-02-25T09:36:08.829Z,93.06
2023-02-25T09:38:36.997Z,92.99
2023-02-25T09:41:05.111Z,92.43
2023-02-25T09:43:38.559Z,92.92
2023-02-25T09:46:13.818Z,92.68
2023-02-25T09:49:07.214Z,93.53
2023-02-25T09:51:38.305Z,94.45
2023-02-25T09:54:15.746Z,93.57
2023-02-25T09:56:42.674Z,94.26
2023-02-25T09:59:15.616Z,94.14
2023-02-25T10:02:28.001Z,92.47
2023-02-25T10:05:22.606Z,94.53
2023-02-25T10:07:59.314Z,93.31
2023-02-25T10:10:35.436Z,92.41
2023-02-25T10:13:23.801Z,92.13
2023-02-25T10:16:12.380Z,91.58
2023-02-25T10:19:09.828Z,92.17
2023-02-25T10:21:37.831Z,91.52
2023-02-25T10:24:14.037Z,91.26
2023-02-25T10:26:45.591Z,91.65
2023-02-25T10:29:38.364Z,90.98
2023-02-25T10:32:21.856Z,91.85
2023-02-25T10:34:51.091Z,92.49
2023-02-25T10:37:27.353Z,92.47
2023-02-25T10:39:59.454Z,92.90
2023-02-25T10:42:26.540Z,93.70
2023-02-25T10:44:54.014Z,93.43
2023-02-25T10:47:35.112Z,91.11
2023-02-25T10:50:12.623Z,91.20
2023-02-25T10:53:01.849Z,92.45
2023-02-25T10:55:37.797Z,90.99
2023-02-25T10:58:05.172Z,91.35
2023-02-25T11:00:34.725Z,92.74
2023-02-25T11:03:02.136Z,91.90
2023-02-25T11:05:33.969Z,91.66
2023-02-25T11:08:02.245Z,91.32
2023-02-25T11:10:29.072Z,91.74
2023-02-25T11:12:58.087Z,90.40
2023-02-25T11:15:44.427Z,91.95
2023-02-25T11:18:22.557Z,90.93
2023-02-25T11:20:54.231Z,91.11
2023-02-25T11:23:36.400Z,92.21
2023-02-25T11:26:04.604Z,89.93
2023-02-25T11:28:34.671Z,90.64
2023-02-25T11:31:24.609Z,91.59
2023-02-25T11:33:57.440Z,91.21
2023-02-25T11:36:25.955Z,92.27
2023-02-25T11:39:06.467Z,91.23
2023-02-25T11:41:33.371Z,91.80
2023-02-25T11:44:17.453Z,90.64
2023-02-25T11:46:45.122Z,91.07
2023-02-25T11:49:19.406Z,90.27
2023-02-25T11:52:11.607Z,90.42
2023-02-25T11:55:12.752Z,88.49
2023-02-25T11:58:21.003Z,89.59
2023-02-25T12:00:53.559Z,90.04
2023-02-25T12:03:48.393Z,89.23
2023-02-25T12:06:50.157Z,90.81
2023-02-25T12:09:16.968Z,88.84
2023-02-25T12:11:52.724Z,89.25
2023-02-25T12:14:30.812Z,88.08
2023-02-25T12:17:10.432Z,88.64
2023-02-25T12:19:57.374Z,88.23
2023-02-25T12:22:48.446Z,88.24
2023-02-25T12:25:23.859Z,88.06
2023-02-25T12:28:05.778Z,88.25
2023-02-25T12:31:12.619Z,88.65
2023-02-25T12:33:45.819Z,88.86
2023-02-25T12:36:21.914Z,89.93
2023-02-25T12:39:13.172Z,88.50
2023-02-25T12:41:48.788Z,87.83
2023-02-25T12:44:35.933Z,87.87
2023-02-25T12:47:22.218Z,87.11
2023-02-25T12:50:21.375Z,86.84
2023-02-25T12:53:09.309Z,86.02
2023-02-25T12:56:00.416Z,86.08
2023-02-25T12:58:33.859Z,86.25
2023-02-25T13:01:25.084Z,86.32
2023-02-25T13:03:57.991Z,86.23
2023-02-25T13:06:57.271Z,87.85
2023-02-25T13:09:46.033Z,86.06
2023-02-25T13:12:23.428Z,85.44
2023-02-25T13:15:20.683Z,86.10
2023-02-25T13:18:16.829Z,85.77
2023-02-25T13:20:55.495Z,84.44
2023-02-25T13:23:58.196Z,86.60
2023-02-25T13:26:44.651Z,84.36
2023-02-25T13:29:11.478Z,85.64
2023-02-25T13:32:06.086Z,85.83
2023-02-25T13:34:47.512Z,84.04
2023-02-25T13:37:41.322Z,84.34
2023-02-25T13:40:45.504Z,83.87
2023-02-25T13:43:39.372Z,84.27
2023-02-25T13:46:28.695Z,84.07
2023-02-25T13:49:18.672Z,84.16
2023-02-25T13:52:23.896Z,83.90
2023-02-25T13:55:35.040Z,84.12
2023-02-25T13:58:20.077Z,85.27
2023-02-25T14:01:17.714Z,83.77
2023-02-25T14:04:10.903Z,83.42
2023-02-25T14:06:43.800Z,84.47
2023-02-25T14:09:41.521Z,83.29
2023-02-25T14:12:27.236Z,82.35
2023-02-25T14:15:05.900Z,83.29
2023-02-25T14:18:07.163Z,82.58
2023-02-25T14:20:49.206Z,82.39
2023-02-25T14:23:42.717Z,79.87
2023-02-25T14:26:41.710Z,79.12
2023-02-25T14:29:20.340Z,78.98
2023-02-25T14:31:54.191Z,77.63
2023-02-25T14:34:56.221Z,78.65
2023-02-25T14:37:29.378Z,79.02
2023-02-25T14:40:05.821Z,77.28
2023-02-25T14:42:43.473Z,76.09
2023-02-25T14:45:10.271Z,76.20
2023-02-25T14:47:45.398Z,75.66
2023-02-25T14:50:16.552Z,75.63
2023-02-25T14:53:09.256Z,73.55
2023-02-25T14:55:51.273Z,74.40
2023-02-25T14:58:45.534Z,71.86
2023-02-25T15:01:24.819Z,72.71
2023-02-25T15:03:54.344Z,71.03
2023-02-25T15:06:42.558Z,70.90
2023-02-25T15:09:55.909Z,70.34
2023-02-25T15:13:00.742Z,70.58
2023-02-25T15:15:35.384Z,72.32
2023-02-25T15:18:39.222Z,73.43
2023-02-25T15:21:31.865Z,72.95
2023-02-25T15:23:59.261Z,73.44
2023-02-25T15:26:44.174Z,74.64
2023-02-25T15:29:29.773Z,77.37
2023-02-25T15:32:28.698Z,76.37
2023-02-25T15:35:01.219Z,75.11
2023-02-25T15:37:30.238Z,73.75
2023-02-25T15:40:14.586Z,74.49
2023-02-25T15:42:54.180Z,73.47
2023-02-25T15:45:27.670Z,75.89
2023-02-25T15:48:07.078Z,76.20
2023-02-25T15:50:54.391Z,73.88
2023-02-25T15:53:21.388Z,74.75
2023-02-25T15:55:50.039Z,75.31
2023-02-25T15:58:26.030Z,75.37
2023-02-25T16:01:06.642Z,75.25
2023-02-25T16:03:36.326Z,73.33
2023-02-25T16:06:21.412Z,76.74
2023-02-25T16:09:14.052Z,76.63
2023-02-25T16:11:53.811Z,74.30
2023-02-25T16:14:32.003Z,73.21
2023-02-25T16:17:19.177Z,74.46
2023-02-25T16:19:55.794Z,74.05
2023-02-25T16:22:24.840Z,73.76
2023-02-25T16:24:56.825Z,73.82
2023-02-25T16:27:52.681Z,75.54
2023-02-25T16:30:28.341Z,77.19
2023-02-25T16:33:28.728Z,73.81
2023-02-25T16:36:10.766Z,74.09
2023-02-25T16:38:47.292Z,73.48
2023-02-25T16:41:15.130Z,72.46
2023-02-25T16:43:43.777Z,72.69
2023-02-25T16:46:17.479Z,77.04
2023-02-25T16:49:17.962Z,77.32
2023-02-25T16:51:45.672Z,72.78
2023-02-25T16:54:31.963Z,72.72
2023-02-25T16:57:01.379Z,72.76
2023-02-25T16:59:31.744Z,72.17
2023-02-25T17:02:15.337Z,72.83
2023-02-25T17:04:48.832Z,73.70
2023-02-25T17:07:28.127Z,69.62
2023-02-25T17:10:01.007Z,70.52
2023-02-25T17:12:47.691Z,67.39
2023-02-25T17:15:17.343Z,66.47
2023-02-25T17:17:45.071Z,66.33
2023-02-25T17:20:18.348Z,65.82
2023-02-25T17:22:45.793Z,65.24
2023-02-25T17:25:16.295Z,67.13
2023-02-25T17:27:45.582Z,68.69
2023-02-25T17:30:36.125Z,67.85
2023-02-25T17:33:03.371Z,67.88
2023-02-25T17:35:30.762Z,68.48
2023-02-25T17:37:57.853Z,69.16
2023-02-25T17:40:27.142Z,70.80
2023-02-25T17:43:19.776Z,72.92
2023-02-25T17:45:53.977Z,72.27
2023-02-25T17:48:23.970Z,73.01
2023-02-25T17:50:53.510Z,73.15
2023-02-25T17:53:30.388Z,72.93
2023-02-25T17:55:57.337Z,73.12
2023-02-25T17:58:24.805Z,72.69
2023-02-25T18:01:03.042Z,73.07
2023-02-25T18:03:33.137Z,73.07
2023-02-25T18:06:02.665Z,73.93
2023-02-25T18:08:31.087Z,74.06
2023-02-25T18:11:04.191Z,74.34
2023-02-25T18:13:36.497Z,75.31
2023-02-25T18:16:32.917Z,74.33
2023-02-25T18:19:00.155Z,75.16
2023-02-25T18:21:27.324Z,73.27
2023-02-25T18:23:54.273Z,73.86
2023-02-25T18:26:26.868Z,74.55
2023-02-25T18:28:57.540Z,74.99
2023-02-25T18:31:24.932Z,74.94
2023-02-25T18:33:52.891Z,74.61
2023-02-25T18:36:25.996Z,75.43
2023-02-25T18:38:55.876Z,73.55
2023-02-25T18:41:22.804Z,76.33
2023-02-25T18:43:49.938Z,77.03
2023-02-25T18:46:16.834Z,75.12
2023-02-25T18:48:43.697Z,75.46
2023-02-25T18:51:13.850Z,76.04
2023-02-25T18:53:41.576Z,77.26
2023-02-25T18:56:08.924Z,76.33
2023-02-25T18:58:35.837Z,76.85
2023-02-25T19:01:02.783Z,77.41
2023-02-25T19:03:33.590Z,77.17
2023-02-25T19:06:01.216Z,76.46
2023-02-25T19:08:28.023Z,78.13
2023-02-25T19:10:54.986Z,76.51
2023-02-25T19:13:28.676Z,77.00
2023-02-25T19:15:55.994Z,76.76
2023-02-25T19:18:23.223Z,77.16
2023-02-25T19:20:50.196Z,77.68
2023-02-25T19:23:17.997Z,79.15
2023-02-25T19:25:46.532Z,77.93
2023-02-25T19:28:13.694Z,78.41
2023-02-25T19:30:42.368Z,78.29
2023-02-25T19:33:11.268Z,78.50
2023-02-25T19:35:41.032Z,78.00
2023-02-25T19:38:09.707Z,77.81
2023-02-25T19:40:37.087Z,79.51
2023-02-25T19:43:05.068Z,78.64
2023-02-25T19:45:32.179Z,78.29
2023-02-25T19:48:00.156Z,79.49
2023-02-25T19:50:27.693Z,79.43
2023-02-25T19:52:55.239Z,78.83
2023-02-25T19:55:22.867Z,79.63
2023-02-25T19:57:50.116Z,80.43
2023-02-25T20:00:20.593Z,79.73
2023-02-25T20:02:47.755Z,81.26
2023-02-25T20:05:15.027Z,80.96
2023-02-25T20:07:42.311Z,79.52
2023-02-25T20:10:11.169Z,78.54
2023-02-25T20:12:39.303Z,79.97
2023-02-25T20:15:07.449Z,79.58
2023-02-25T20:17:40.136Z,81.22
2023-02-25T20:20:08.631Z,78.95
2023-02-25T20:22:36.143Z,81.13
2023-02-25T20:25:03.251Z,80.04
2023-02-25T20:27:30.087Z,80.47
2023-02-25T20:29:56.915Z,80.00
2023-02-25T20:32:23.924Z,80.53
2023-02-25T20:34:50.975Z,80.70
2023-02-25T20:37:22.374Z,80.00
2023-02-25T20:39:55.184Z,78.51
2023-02-25T20:42:30.276Z,79.57
2023-02-25T20:44:58.239Z,80.73
2023-02-25T20:47:35.242Z,79.47
2023-02-25T20:50:02.664Z,79.37
2023-02-25T20:52:29.650Z,80.60
2023-02-25T20:54:58.098Z,79.60
2023-02-25T20:57:27.076Z,79.22
2023-02-25T20:59:54.482Z,79.40
2023-02-25T21:02:21.554Z,79.43
2023-02-25T21:04:48.654Z,78.57
